CheckWX is a tool to help pilots better visualize weather data.  It is not intended as a substitute for an official pre-flight weather briefing.

18:58:19 UTC

KARG METAR
Walnut Ridge Regional Airport
Walnut Ridge, Arkansas, USA
Current

1 hour ago

KARG 171756Z AUTO VRB04KT 10SM CLR 14/06 A3009 RMK AO2 SLP192 T01440056 10144 20033 58017
Observed
Oct-17 @ 17:56 UTC
Wind
  • Variable at 4 KTS
Visibility
10 SM
Flight Rules
VFR
Cloud Levels
  • Clear skies
Temperature
14°C / 57°F
Dewpoint
C / 43°F
Humidity
59%
Altimeter
30.09" Hg
Pressure
1018.92 hPa
Previous

2 hours ago

KARG 171656Z AUTO 00000KT 10SM CLR 13/05 A3012 RMK AO2 SLP200 T01280050
Observed
Oct-17 @ 16:56 UTC
Visibility
10 SM
Flight Rules
VFR
Cloud Levels
  • Clear skies
Temperature
13°C / 55°F
Dewpoint
C / 41°F
Humidity
59%
Altimeter
30.12" Hg
Pressure
1020.02 hPa
Previous

3 hours ago

KARG 171556Z AUTO 35004KT 10SM CLR 12/06 A3013 RMK AO2 SLP203 T01170056
Observed
Oct-17 @ 15:56 UTC
Wind
  • 350° at 4 KTS
Visibility
10 SM
Flight Rules
VFR
Cloud Levels
  • Clear skies
Temperature
12°C / 54°F
Dewpoint
C / 43°F
Humidity
67%
Altimeter
30.13" Hg
Pressure
1020.32 hPa